Time;durP1;ratioP1;P1;durP2;ratioP2;P2;SDS_P1;SDS_P2;PMS_P1;PMS_P2;Temp;Humidity;BMP_temperature;BMP_pressure;BME280_temperature;BME280_humidity;BME280_pressure;Samples;Min_cycle;Max_cycle;Signal;HPM_P1;HPM_P2
2021/01/18 00:02:01;;;;;;;27.67;6.38;;;5.90;99.90;;;;;;5071702;28;20037;-90
2021/01/18 00:04:26;;;;;;;23.70;5.28;;;5.90;99.90;;;;;;5071427;28;20485;-90
2021/01/18 00:06:52;;;;;;;29.42;6.47;;;5.90;99.90;;;;;;5071215;28;20157;-90
2021/01/18 00:09:18;;;;;;;21.50;4.90;;;6.00;99.90;;;;;;5055380;28;20071;-90
2021/01/18 00:11:46;;;;;;;20.48;5.40;;;5.90;99.90;;;;;;5020047;28;20091;-91
2021/01/18 00:14:17;;;;;;;23.05;5.10;;;5.90;99.90;;;;;;5070306;28;20032;-90
2021/01/18 00:16:45;;;;;;;23.27;5.05;;;5.90;99.90;;;;;;5069541;28;20029;-91
2021/01/18 00:19:12;;;;;;;26.95;5.75;;;6.00;99.90;;;;;;5020913;28;20037;-90
2021/01/18 00:21:45;;;;;;;23.98;5.47;;;6.00;99.90;;;;;;5055708;28;20033;-90
2021/01/18 00:24:12;;;;;;;19.73;5.15;;;6.00;99.90;;;;;;5072781;28;20021;-89
2021/01/18 00:26:38;;;;;;;30.80;6.00;;;6.00;99.90;;;;;;5055868;28;20060;-90
2021/01/18 00:29:05;;;;;;;23.30;5.25;;;5.90;99.90;;;;;;5056677;28;20459;-91
2021/01/18 00:31:31;;;;;;;26.45;6.00;;;5.90;99.90;;;;;;5073099;28;20091;-90
2021/01/18 00:33:57;;;;;;;28.42;5.88;;;5.90;99.90;;;;;;5071289;28;20025;-90
2021/01/18 00:36:23;;;;;;;23.92;5.45;;;5.90;99.90;;;;;;5070281;28;20063;-90
2021/01/18 00:38:50;;;;;;;26.20;5.97;;;6.00;99.90;;;;;;5037508;28;20021;-90
2021/01/18 00:41:17;;;;;;;26.25;6.82;;;5.90;99.90;;;;;;5073727;28;20474;-89
2021/01/18 00:43:43;;;;;;;41.35;7.72;;;5.90;99.90;;;;;;5075220;28;20413;-91
2021/01/18 00:46:09;;;;;;;24.60;5.70;;;5.80;99.90;;;;;;5058687;28;20028;-91
2021/01/18 00:48:38;;;;;;;25.80;5.55;;;5.80;99.90;;;;;;5059117;28;20040;-90
2021/01/18 00:51:04;;;;;;;23.58;5.00;;;5.80;99.90;;;;;;5060370;28;20028;-91
2021/01/18 00:53:30;;;;;;;32.30;6.78;;;5.70;99.90;;;;;;5089107;28;20028;-89
2021/01/18 00:55:56;;;;;;;27.38;5.97;;;5.70;99.90;;;;;;5079242;28;20039;-90
2021/01/18 00:58:22;;;;;;;30.48;6.45;;;5.70;99.90;;;;;;5097036;28;20027;-90
2021/01/18 01:00:47;;;;;;;25.67;5.95;;;5.70;99.90;;;;;;5080919;28;20009;-91
2021/01/18 01:03:13;;;;;;;29.13;8.20;;;5.80;99.90;;;;;;5099530;28;20031;-90
2021/01/18 01:05:39;;;;;;;20.20;6.25;;;5.80;99.90;;;;;;5100206;28;20013;-89
2021/01/18 01:08:05;;;;;;;29.92;6.57;;;5.80;99.90;;;;;;5099509;28;20055;-89
2021/01/18 01:10:35;;;;;;;21.42;6.15;;;5.70;99.90;;;;;;5099840;28;20013;-89
2021/01/18 01:13:10;;;;;;;26.83;6.45;;;5.70;99.90;;;;;;5076387;28;20020;-89
2021/01/18 01:15:36;;;;;;;28.90;6.28;;;5.60;99.90;;;;;;5076739;28;20028;-90
2021/01/18 01:18:03;;;;;;;16.55;5.60;;;5.60;99.90;;;;;;5058916;28;20033;-90
2021/01/18 01:20:29;;;;;;;27.38;5.65;;;5.60;99.90;;;;;;5043509;28;20040;-90
2021/01/18 01:22:55;;;;;;;23.90;5.15;;;5.70;99.90;;;;;;5062767;28;20029;-90
2021/01/18 01:25:23;;;;;;;22.02;5.60;;;5.70;99.90;;;;;;5049574;28;20367;-89
2021/01/18 01:27:50;;;;;;;22.45;5.68;;;5.60;99.90;;;;;;5080930;28;20028;-90
2021/01/18 01:30:21;;;;;;;23.15;4.70;;;5.70;99.90;;;;;;5058619;28;20029;-89
2021/01/18 01:32:51;;;;;;;26.10;5.40;;;5.70;99.90;;;;;;5076995;28;20103;-92
2021/01/18 01:35:25;;;;;;;25.92;5.82;;;5.60;99.90;;;;;;5075518;28;20038;-90
2021/01/18 01:37:51;;;;;;;31.53;6.47;;;5.70;99.90;;;;;;5075133;28;20535;-90
2021/01/18 01:40:18;;;;;;;34.13;6.07;;;5.70;99.90;;;;;;5058047;28;20048;-89
2021/01/18 01:42:45;;;;;;;28.83;5.55;;;5.60;99.90;;;;;;5057858;28;20474;-90
2021/01/18 01:45:12;;;;;;;20.30;5.57;;;5.50;99.90;;;;;;5041876;28;20039;-90
2021/01/18 01:47:41;;;;;;;16.92;5.78;;;5.50;99.90;;;;;;5074952;28;20071;-90
2021/01/18 01:50:15;;;;;;;26.05;6.35;;;5.50;99.90;;;;;;5058272;28;20094;-91
2021/01/18 01:52:50;;;;;;;23.40;5.90;;;5.50;99.90;;;;;;5058192;28;20024;-90
2021/01/18 01:55:32;;;;;;;24.73;6.80;;;5.50;99.90;;;;;;5058416;28;20428;-91
2021/01/18 01:58:00;;;;;;;26.20;4.82;;;5.60;99.90;;;;;;5074970;28;20049;-90
2021/01/18 02:00:36;;;;;;;24.50;5.75;;;5.60;99.90;;;;;;5041390;28;20064;-90
2021/01/18 02:03:05;;;;;;;30.40;6.43;;;5.70;99.90;;;;;;5058331;28;20112;-90
2021/01/18 02:05:32;;;;;;;19.63;5.63;;;5.70;99.90;;;;;;5041046;28;20025;-90
2021/01/18 02:08:03;;;;;;;22.63;5.65;;;5.60;99.90;;;;;;5041682;28;20109;-90
2021/01/18 02:10:30;;;;;;;34.30;6.95;;;5.70;99.90;;;;;;5071209;28;20468;-90
2021/01/18 02:13:14;;;;;;;29.02;5.93;;;5.60;99.90;;;;;;5042357;28;20024;-90
2021/01/18 02:16:02;;;;;;;29.42;6.00;;;5.60;99.90;;;;;;5061541;28;20570;-90
2021/01/18 02:19:03;;;;;;;29.98;6.20;;;5.70;99.90;;;;;;5061084;28;20497;-89
2021/01/18 02:21:42;;;;;;;39.20;6.22;;;5.70;99.90;;;;;;5057898;28;20056;-90
2021/01/18 02:24:17;;;;;;;30.10;6.32;;;5.80;99.90;;;;;;5058310;28;20021;-89
2021/01/18 02:27:01;;;;;;;;;;;5.70;99.90;;;;;;5058509;28;20044;-90
2021/01/18 02:29:56;;;;;;;29.77;6.00;;;5.80;99.90;;;;;;5075048;28;19919;-89
2021/01/18 02:33:02;;;;;;;25.10;6.15;;;5.70;99.90;;;;;;5058784;28;20490;-90
2021/01/18 02:35:51;;;;;;;27.30;5.93;;;5.70;99.90;;;;;;5059419;28;20181;-90
2021/01/18 02:38:42;;;;;;;24.02;5.53;;;5.70;99.90;;;;;;5058158;28;20092;-90
2021/01/18 02:41:26;;;;;;;28.92;5.95;;;5.70;99.90;;;;;;5057438;28;20041;-91
2021/01/18 02:43:58;;;;;;;31.02;6.20;;;5.70;99.90;;;;;;5057000;28;20115;-90
2021/01/18 02:46:26;;;;;;;27.65;5.65;;;5.70;99.90;;;;;;5057153;28;20421;-90
2021/01/18 02:48:53;;;;;;;39.08;7.70;;;5.60;99.90;;;;;;5056438;28;20028;-90
2021/01/18 02:51:21;;;;;;;39.33;7.93;;;5.50;99.90;;;;;;5056635;28;20051;-90
2021/01/18 02:53:57;;;;;;;27.70;6.72;;;5.30;99.90;;;;;;5056764;28;20042;-90
2021/01/18 02:56:26;;;;;;;32.75;6.55;;;5.40;99.90;;;;;;5074992;28;20021;-90
2021/01/18 02:58:53;;;;;;;43.08;8.75;;;5.40;99.90;;;;;;5057091;28;20032;-90
2021/01/18 03:01:51;;;;;;;32.50;7.25;;;5.30;99.90;;;;;;5056911;28;20024;-91
2021/01/18 03:04:37;;;;;;;30.52;7.05;;;5.40;99.90;;;;;;5057065;28;20036;-90
2021/01/18 03:07:17;;;;;;;30.65;7.57;;;5.50;99.90;;;;;;5057030;28;20113;-91
2021/01/18 03:09:53;;;;;;;33.25;7.43;;;5.50;99.90;;;;;;5074384;28;20021;-90
2021/01/18 03:12:22;;;;;;;33.30;7.72;;;5.60;99.90;;;;;;5056424;28;20056;-90
2021/01/18 03:14:52;;;;;;;58.00;11.70;;;5.70;99.90;;;;;;5056321;28;20545;-90
2021/01/18 03:17:26;;;;;;;48.17;9.15;;;5.70;99.90;;;;;;5040126;28;20033;-90
2021/01/18 03:19:53;;;;;;;34.85;8.52;;;5.60;99.90;;;;;;5055774;28;20028;-90
2021/01/18 03:22:29;;;;;;;28.48;7.90;;;5.70;99.90;;;;;;5056176;28;20033;-90
2021/01/18 03:25:06;;;;;;;37.20;9.00;;;5.80;99.90;;;;;;5055487;28;20091;-91
2021/01/18 03:27:50;;;;;;;51.53;11.25;;;5.70;99.90;;;;;;5072920;28;20037;-90
2021/01/18 03:30:18;;;;;;;40.38;9.85;;;5.70;99.90;;;;;;5061902;28;20029;-90
2021/01/18 03:32:47;;;;;;;46.28;10.95;;;5.70;99.90;;;;;;5090600;28;20080;-90
2021/01/18 03:35:13;;;;;;;45.60;10.25;;;5.70;99.90;;;;;;5076887;28;20024;-90
2021/01/18 03:37:38;;;;;;;52.83;10.48;;;5.60;99.90;;;;;;5058131;28;20506;-90
2021/01/18 03:40:05;;;;;;;39.17;9.57;;;5.60;99.90;;;;;;5057777;28;20049;-90
2021/01/18 03:42:30;;;;;;;41.08;9.40;;;5.60;99.90;;;;;;5073032;28;20021;-90
2021/01/18 03:44:56;;;;;;;53.78;11.88;;;5.70;99.90;;;;;;5072590;28;20097;-90
2021/01/18 03:47:22;;;;;;;39.00;9.40;;;5.60;99.90;;;;;;5055449;28;20398;-89
2021/01/18 03:49:48;;;;;;;43.00;9.55;;;5.70;99.90;;;;;;5071850;28;20021;-90
2021/01/18 03:52:13;;;;;;;41.13;10.05;;;5.70;99.90;;;;;;5055499;28;20041;-89
2021/01/18 03:54:39;;;;;;;46.25;9.75;;;5.80;99.90;;;;;;5073747;28;20039;-89
2021/01/18 03:57:05;;;;;;;44.10;10.73;;;5.80;99.90;;;;;;5023225;28;20028;-90
2021/01/18 03:59:30;;;;;;;50.97;9.80;;;5.90;99.90;;;;;;5073439;28;20120;-89
2021/01/18 04:01:56;;;;;;;48.28;10.15;;;5.90;99.90;;;;;;5057071;28;20039;-89
2021/01/18 04:04:22;;;;;;;38.40;8.90;;;5.90;99.90;;;;;;5075137;28;20728;-89
2021/01/18 04:06:47;;;;;;;49.22;9.52;;;6.00;99.90;;;;;;5074136;28;20131;-89
2021/01/18 04:09:13;;;;;;;43.60;9.18;;;5.90;99.90;;;;;;5060986;28;20056;-88
2021/01/18 04:11:39;;;;;;;37.53;8.80;;;6.00;99.90;;;;;;5066017;28;20032;-89
2021/01/18 04:14:07;;;;;;;54.42;10.80;;;6.00;99.90;;;;;;5092869;28;20036;-92
2021/01/18 04:16:40;;;;;;;60.55;10.68;;;6.10;99.90;;;;;;5077240;28;20100;-89
2021/01/18 04:19:08;;;;;;;54.67;9.85;;;6.10;99.90;;;;;;5077429;28;20038;-92
2021/01/18 04:21:37;;;;;;;40.08;9.90;;;6.10;99.90;;;;;;5078314;28;20048;-90
2021/01/18 04:24:04;;;;;;;49.15;9.38;;;6.10;99.90;;;;;;5079648;28;20013;-88
2021/01/18 04:26:29;;;;;;;54.38;9.50;;;6.10;99.90;;;;;;5078371;28;20016;-90
2021/01/18 04:28:55;;;;;;;49.58;9.00;;;6.10;99.90;;;;;;5062685;28;20035;-89
2021/01/18 04:31:21;;;;;;;47.78;8.82;;;6.00;99.90;;;;;;5095483;28;20024;-89
2021/01/18 04:33:46;;;;;;;47.90;9.05;;;6.00;99.90;;;;;;5080116;28;20036;-89
2021/01/18 04:36:12;;;;;;;34.65;8.77;;;6.00;99.90;;;;;;5098126;28;20019;-89
2021/01/18 04:38:38;;;;;;;47.30;9.05;;;6.00;99.90;;;;;;5101216;28;20013;-90
2021/01/18 04:41:08;;;;;;;33.80;7.97;;;6.00;99.90;;;;;;5050084;28;20036;-89
2021/01/18 04:43:35;;;;;;;43.42;9.38;;;6.00;99.90;;;;;;5066620;28;20013;-89
2021/01/18 04:46:05;;;;;;;37.03;8.27;;;5.90;99.90;;;;;;5083471;28;20090;-89
2021/01/18 04:48:33;;;;;;;52.50;9.95;;;5.90;99.90;;;;;;5083101;28;20025;-90
2021/01/18 04:50:59;;;;;;;42.10;8.43;;;5.90;99.90;;;;;;5082163;28;20048;-89
2021/01/18 04:53:31;;;;;;;37.20;7.35;;;5.90;99.90;;;;;;5063689;28;20025;-91
2021/01/18 04:56:33;;;;;;;35.78;7.88;;;5.90;99.90;;;;;;5071261;28;20025;-89
2021/01/18 04:59:02;;;;;;;36.50;7.55;;;5.90;99.90;;;;;;5054847;28;20040;-90
2021/01/18 05:01:32;;;;;;;40.63;7.68;;;6.00;99.90;;;;;;5067897;28;20032;-89
2021/01/18 05:04:12;;;;;;;43.50;8.82;;;6.00;99.90;;;;;;5067389;28;20034;-89
2021/01/18 05:06:45;;;;;;;36.47;8.57;;;6.00;99.90;;;;;;5083870;28;20024;-90
2021/01/18 05:09:30;;;;;;;36.85;7.95;;;5.90;99.90;;;;;;5045736;28;20039;-91
2021/01/18 05:11:58;;;;;;;42.67;8.93;;;6.00;99.90;;;;;;5042506;28;20024;-90
2021/01/18 05:14:26;;;;;;;33.33;7.60;;;6.00;99.90;;;;;;5058268;28;20054;-90
2021/01/18 05:16:58;;;;;;;48.67;10.45;;;6.00;99.90;;;;;;5076354;28;20111;-90
2021/01/18 05:19:27;;;;;;;42.30;8.43;;;6.00;99.90;;;;;;5058203;28;20025;-89
2021/01/18 05:21:54;;;;;;;48.85;8.23;;;6.00;99.90;;;;;;5058762;28;20032;-89
2021/01/18 05:24:21;;;;;;;27.52;8.77;;;6.00;99.90;;;;;;5041286;28;20515;-91
2021/01/18 05:27:04;;;;;;;32.22;6.97;;;6.00;99.90;;;;;;5076096;28;20029;-89
2021/01/18 05:29:32;;;;;;;44.85;7.43;;;6.00;99.90;;;;;;5041046;28;20033;-89
2021/01/18 05:31:58;;;;;;;30.95;7.47;;;6.10;99.90;;;;;;5058150;28;20020;-89
2021/01/18 05:34:27;;;;;;;41.78;8.00;;;6.10;99.90;;;;;;5075580;28;20024;-89
2021/01/18 05:36:52;;;;;;;44.17;8.35;;;6.10;99.90;;;;;;5074587;28;20029;-89
2021/01/18 05:39:22;;;;;;;42.25;7.38;;;6.10;99.90;;;;;;5057669;28;20048;-90
2021/01/18 05:41:53;;;;;;;43.92;8.27;;;6.20;99.90;;;;;;5060010;28;20033;-91
2021/01/18 05:44:20;;;;;;;35.50;6.50;;;6.20;99.90;;;;;;5061038;28;20482;-91
2021/01/18 05:46:48;;;;;;;43.15;7.15;;;6.20;99.90;;;;;;5057413;28;20119;-90
2021/01/18 05:49:19;;;;;;;50.15;8.25;;;6.20;99.90;;;;;;5078751;28;20028;-91
2021/01/18 05:51:59;;;;;;;36.78;6.93;;;6.20;99.90;;;;;;5076282;28;20060;-90
2021/01/18 05:54:26;;;;;;;37.45;7.05;;;6.30;99.90;;;;;;5079578;28;20032;-91
2021/01/18 05:56:56;;;;;;;39.20;8.32;;;6.20;99.90;;;;;;5071943;28;20040;-90
2021/01/18 05:59:26;;;;;;;42.58;8.20;;;6.20;99.90;;;;;;5063166;28;20028;-90
2021/01/18 06:01:55;;;;;;;34.60;6.60;;;6.20;99.90;;;;;;5058037;28;20068;-90
2021/01/18 06:04:30;;;;;;;37.70;6.22;;;6.20;99.90;;;;;;5073774;28;20028;-90
2021/01/18 06:07:02;;;;;;;33.10;7.47;;;6.20;99.90;;;;;;5075243;28;20032;-89
2021/01/18 06:09:48;;;;;;;40.05;7.65;;;6.20;99.90;;;;;;5075527;28;20032;-89
2021/01/18 06:12:21;;;;;;;39.15;6.97;;;6.20;99.90;;;;;;5057534;28;20029;-89
2021/01/18 06:15:08;;;;;;;41.78;7.45;;;6.20;99.90;;;;;;5075660;28;20031;-90
2021/01/18 06:17:43;;;;;;;41.55;6.40;;;6.20;99.90;;;;;;5057235;28;20028;-90
2021/01/18 06:20:17;;;;;;;46.28;6.82;;;6.20;99.90;;;;;;5077632;28;20067;-89
2021/01/18 06:22:49;;;;;;;42.25;6.93;;;6.20;99.90;;;;;;5077653;28;20082;-90
2021/01/18 06:25:14;;;;;;;37.33;5.82;;;6.20;99.90;;;;;;5057298;28;20107;-90
2021/01/18 06:27:40;;;;;;;26.80;6.80;;;6.20;99.90;;;;;;5073642;28;20132;-90
2021/01/18 06:30:23;;;;;;;30.73;5.65;;;6.20;99.90;;;;;;5057493;28;20131;-90
2021/01/18 06:32:51;;;;;;;36.35;7.57;;;6.30;99.90;;;;;;5057048;28;20130;-90
2021/01/18 06:35:26;;;;;;;41.65;7.47;;;6.30;99.90;;;;;;5056814;28;20035;-90
2021/01/18 06:37:57;;;;;;;39.65;6.95;;;6.30;99.90;;;;;;5073449;28;20090;-90
2021/01/18 06:40:32;;;;;;;38.70;6.68;;;6.30;99.90;;;;;;5056525;28;20048;-90
2021/01/18 06:42:58;;;;;;;33.95;6.53;;;6.30;99.90;;;;;;5056596;28;20028;-90
2021/01/18 06:45:34;;;;;;;40.40;6.55;;;6.30;99.90;;;;;;5056348;28;20032;-91
2021/01/18 06:48:00;;;;;;;29.88;5.70;;;6.30;99.90;;;;;;5075164;28;20062;-90
2021/01/18 06:50:33;;;;;;;30.27;6.18;;;6.30;99.90;;;;;;5056179;28;20027;-91
2021/01/18 06:53:11;;;;;;;26.75;6.28;;;6.30;99.90;;;;;;5057149;28;20119;-91
2021/01/18 06:55:44;;;;;;;38.50;5.47;;;6.30;99.90;;;;;;5056396;28;20094;-90
2021/01/18 06:58:53;;;;;;;35.65;6.28;;;6.40;99.90;;;;;;5073845;28;20052;-90
2021/01/18 07:01:33;;;;;;;31.13;6.43;;;6.30;99.90;;;;;;5053174;28;20619;-90
2021/01/18 07:04:10;;;;;;;33.58;6.43;;;6.40;99.90;;;;;;5074475;28;20024;-90
2021/01/18 07:06:43;;;;;;;34.33;7.07;;;6.40;99.90;;;;;;5056133;28;20134;-90
2021/01/18 07:09:14;;;;;;;33.20;5.90;;;6.40;99.90;;;;;;5056618;28;20029;-91
2021/01/18 07:11:41;;;;;;;35.03;7.22;;;6.30;99.90;;;;;;5056230;28;20029;-90
2021/01/18 07:14:08;;;;;;;40.17;6.95;;;6.40;99.90;;;;;;5057154;28;20030;-90
2021/01/18 07:16:34;;;;;;;27.67;5.60;;;6.40;99.90;;;;;;5056181;28;20116;-90
2021/01/18 07:19:03;;;;;;;31.98;6.25;;;6.40;99.90;;;;;;5056403;28;20028;-89
2021/01/18 07:21:37;;;;;;;31.73;5.40;;;6.40;99.90;;;;;;5056305;28;20056;-89
2021/01/18 07:24:08;;;;;;;35.50;6.93;;;6.40;99.90;;;;;;5056414;28;20488;-89
2021/01/18 07:27:04;;;;;;;35.60;6.38;;;6.40;99.90;;;;;;5074399;28;20261;-88
2021/01/18 07:29:32;;;;;;;36.22;7.85;;;6.40;99.90;;;;;;5059195;28;20031;-88
2021/01/18 07:31:58;;;;;;;38.85;7.10;;;6.40;99.90;;;;;;5064824;28;20048;-88
2021/01/18 07:34:27;;;;;;;36.17;6.47;;;6.40;99.90;;;;;;5057574;28;20135;-89
2021/01/18 07:37:04;;;;;;;32.00;7.68;;;6.40;99.90;;;;;;5039319;28;20039;-88
2021/01/18 07:39:40;;;;;;;36.67;7.20;;;6.40;99.90;;;;;;5055813;28;20044;-88
2021/01/18 07:42:32;;;;;;;31.10;5.68;;;6.40;99.90;;;;;;5056735;28;20073;-89
2021/01/18 07:45:10;;;;;;;36.15;7.20;;;6.50;99.90;;;;;;5073249;28;20024;-88
2021/01/18 07:47:55;;;;;;;26.80;6.38;;;6.50;99.90;;;;;;5056463;28;20028;-88
2021/01/18 07:50:28;;;;;;;42.22;10.40;;;6.50;99.90;;;;;;5075478;28;20033;-89
2021/01/18 07:53:04;;;;;;;31.02;7.25;;;6.50;99.90;;;;;;5076582;28;20032;-88
2021/01/18 07:55:30;;;;;;;35.63;6.93;;;6.50;99.90;;;;;;5059470;28;20024;-89
2021/01/18 07:58:12;;;;;;;38.85;7.43;;;6.50;99.90;;;;;;5081397;28;20029;-89
2021/01/18 08:00:38;;;;;;;31.52;6.93;;;6.50;99.90;;;;;;5070063;28;20031;-88
2021/01/18 08:03:25;;;;;;;31.92;6.57;;;6.60;99.90;;;;;;5079526;28;20088;-88
2021/01/18 08:06:00;;;;;;;35.22;6.95;;;6.50;99.90;;;;;;5067445;28;20088;-87
2021/01/18 08:08:27;;;;;;;38.17;6.72;;;6.50;99.90;;;;;;5076701;28;20040;-89
2021/01/18 08:11:06;;;;;;;41.60;6.72;;;6.50;99.90;;;;;;5098297;28;20028;-87
2021/01/18 08:13:42;;;;;;;29.50;6.40;;;6.50;99.90;;;;;;5083649;28;20033;-92
2021/01/18 08:16:16;;;;;;;46.80;7.00;;;6.50;99.90;;;;;;5084180;28;20025;-90
2021/01/18 08:19:07;;;;;;;36.00;7.00;;;6.50;99.90;;;;;;5084142;28;20024;-90
2021/01/18 08:21:33;;;;;;;34.45;6.70;;;6.60;99.90;;;;;;5083660;28;20043;-90
2021/01/18 08:24:06;;;;;;;30.13;6.35;;;6.50;99.90;;;;;;5083554;28;20020;-87
2021/01/18 08:26:51;;;;;;;35.85;7.80;;;6.60;99.90;;;;;;5086312;28;20051;-88
2021/01/18 08:29:36;;;;;;;33.22;5.85;;;6.60;99.90;;;;;;5082036;28;20028;-88
2021/01/18 08:32:20;;;;;;;30.55;6.15;;;6.60;99.90;;;;;;5064943;28;20028;-89
2021/01/18 08:34:57;;;;;;;39.92;7.10;;;6.60;99.90;;;;;;5083266;28;20025;-89
2021/01/18 08:37:25;;;;;;;37.72;5.57;;;6.60;99.90;;;;;;5067931;28;20036;-87
2021/01/18 08:40:15;;;;;;;36.30;7.75;;;6.60;99.90;;;;;;5080448;28;20428;-87
2021/01/18 08:42:44;;;;;;;30.60;7.10;;;6.70;99.90;;;;;;5077153;28;20063;-88
2021/01/18 08:45:42;;;;;;;35.25;6.70;;;6.80;99.90;;;;;;5081048;28;20025;-87
2021/01/18 08:48:11;;;;;;;35.72;6.53;;;6.70;99.90;;;;;;5029027;28;20067;-89
2021/01/18 08:50:46;;;;;;;32.13;7.05;;;6.80;99.90;;;;;;5061663;28;20021;-89
2021/01/18 08:53:52;;;;;;;28.38;6.03;;;6.80;99.90;;;;;;5079936;28;20029;-88
2021/01/18 08:56:39;;;;;;;35.60;7.22;;;6.80;99.90;;;;;;5049026;28;20029;-88
2021/01/18 08:59:14;;;;;;;26.27;6.53;;;6.80;99.90;;;;;;5063627;28;20478;-88
2021/01/18 09:01:40;;;;;;;31.98;6.75;;;6.80;99.90;;;;;;5060964;28;20495;-88
2021/01/18 09:04:06;;;;;;;24.60;6.22;;;6.80;99.90;;;;;;5082440;28;20028;-88
2021/01/18 09:06:32;;;;;;;36.13;7.15;;;6.80;99.90;;;;;;5082653;28;20036;-89
2021/01/18 09:09:07;;;;;;;33.28;6.60;;;6.80;99.90;;;;;;5065763;28;20067;-89
2021/01/18 09:11:35;;;;;;;35.60;7.13;;;6.80;99.90;;;;;;5084807;28;20029;-88
2021/01/18 09:14:05;;;;;;;34.00;7.53;;;6.90;99.90;;;;;;5084163;28;20032;-88
2021/01/18 09:16:31;;;;;;;40.55;6.50;;;6.90;99.90;;;;;;5065478;28;20028;-87
2021/01/18 09:19:05;;;;;;;39.53;7.15;;;6.90;99.90;;;;;;5050675;28;20119;-90
2021/01/18 09:21:33;;;;;;;43.78;7.45;;;6.90;99.90;;;;;;5082739;28;20095;-88
2021/01/18 09:24:10;;;;;;;46.53;7.38;;;6.90;99.90;;;;;;5083018;28;20035;-90
2021/01/18 09:26:39;;;;;;;38.53;7.47;;;6.90;99.90;;;;;;5082884;28;20043;-94
2021/01/18 09:29:05;;;;;;;43.70;7.15;;;6.90;99.90;;;;;;5086717;28;20051;-91
2021/01/18 09:31:31;;;;;;;46.40;8.02;;;6.90;99.90;;;;;;5081350;28;20029;-90
2021/01/18 09:34:11;;;;;;;35.35;7.00;;;6.90;99.90;;;;;;5070664;28;20079;-91
2021/01/18 09:36:39;;;;;;;38.65;7.60;;;6.90;99.90;;;;;;5069648;28;20032;-90
2021/01/18 09:39:05;;;;;;;26.63;7.22;;;7.00;99.90;;;;;;5064873;28;20072;-90
2021/01/18 09:41:32;;;;;;;39.63;7.60;;;7.00;99.90;;;;;;5051724;28;20048;-90
2021/01/18 09:44:04;;;;;;;29.95;5.85;;;6.90;99.90;;;;;;5064713;28;20082;-91
2021/01/18 09:46:31;;;;;;;30.13;6.57;;;7.00;99.90;;;;;;5065809;28;20020;-89
2021/01/18 09:48:57;;;;;;;39.28;6.30;;;7.00;99.90;;;;;;5063091;28;20386;-88
2021/01/18 09:51:25;;;;;;;33.55;7.05;;;7.00;99.90;;;;;;5067457;28;20024;-89
2021/01/18 09:53:58;;;;;;;30.70;7.82;;;7.00;99.90;;;;;;5066272;28;20084;-92
2021/01/18 09:56:27;;;;;;;26.25;6.18;;;7.00;99.90;;;;;;5082821;28;20037;-90
2021/01/18 09:59:00;;;;;;;39.83;6.35;;;7.00;99.90;;;;;;5064182;28;20035;-91
2021/01/18 10:01:27;;;;;;;34.08;6.65;;;7.00;99.90;;;;;;5075245;28;20020;-90
2021/01/18 10:03:55;;;;;;;39.78;7.90;;;7.00;99.90;;;;;;5092005;28;20086;-91
2021/01/18 10:06:25;;;;;;;30.40;6.32;;;7.00;99.90;;;;;;5076115;28;20028;-90
2021/01/18 10:08:52;;;;;;;33.00;5.82;;;7.10;99.90;;;;;;5074079;28;20036;-90
2021/01/18 10:11:43;;;;;;;39.25;8.27;;;7.10;99.90;;;;;;5082288;28;20020;-90
2021/01/18 10:14:30;;;;;;;31.08;6.22;;;7.00;99.90;;;;;;5062370;28;20021;-91
2021/01/18 10:17:01;;;;;;;36.00;6.85;;;7.00;99.90;;;;;;5064012;28;20036;-91
2021/01/18 10:19:30;;;;;;;31.90;5.97;;;7.10;99.90;;;;;;5058799;28;20106;-91
2021/01/18 10:21:58;;;;;;;35.67;6.13;;;7.10;99.90;;;;;;5058337;28;20052;-91
2021/01/18 10:24:27;;;;;;;38.17;6.10;;;7.10;99.90;;;;;;5060480;28;20029;-90
2021/01/18 10:27:07;;;;;;;36.10;6.47;;;7.20;99.90;;;;;;5045102;28;20039;-90
2021/01/18 10:29:34;;;;;;;39.00;7.25;;;7.10;99.90;;;;;;5059320;28;20533;-90
2021/01/18 10:32:00;;;;;;;39.97;7.10;;;7.10;99.90;;;;;;5059731;28;20051;-91
2021/01/18 10:34:33;;;;;;;27.98;6.00;;;7.10;99.90;;;;;;5058559;28;20032;-92
2021/01/18 10:37:19;;;;;;;22.70;5.63;;;7.10;99.90;;;;;;5099714;28;20035;-93
2021/01/18 10:39:46;;;;;;;25.90;6.07;;;7.10;99.90;;;;;;5086838;28;20048;-88
2021/01/18 10:42:19;;;;;;;30.73;6.15;;;7.20;99.90;;;;;;5104701;28;20024;-85
2021/01/18 10:45:07;;;;;;;34.22;6.68;;;7.20;99.90;;;;;;5078155;28;20043;-88
2021/01/18 10:47:33;;;;;;;40.80;6.60;;;7.20;99.90;;;;;;5083622;28;20097;-88
2021/01/18 10:50:01;;;;;;;35.13;6.43;;;7.20;99.90;;;;;;5098592;28;20079;-89
2021/01/18 10:52:42;;;;;;;36.00;7.70;;;7.20;99.90;;;;;;5081701;28;20031;-88
2021/01/18 10:55:33;;;;;;;39.33;8.18;;;7.20;99.90;;;;;;5064283;28;20064;-89
2021/01/18 10:58:00;;;;;;;33.47;7.60;;;7.20;99.90;;;;;;5082530;28;20060;-85
2021/01/18 11:00:27;;;;;;;30.02;6.72;;;7.20;99.90;;;;;;5098749;28;20051;-88
2021/01/18 11:03:05;;;;;;;30.23;6.53;;;7.20;99.90;;;;;;5062973;28;20024;-88
2021/01/18 11:05:40;;;;;;;28.02;5.93;;;7.20;99.90;;;;;;5063619;28;20028;-87
2021/01/18 11:08:07;;;;;;;31.85;6.13;;;7.10;99.90;;;;;;5064995;28;20032;-88
2021/01/18 11:10:40;;;;;;;34.85;6.97;;;7.10;99.90;;;;;;5098389;28;20420;-87
2021/01/18 11:13:18;;;;;;;27.33;6.22;;;7.10;99.90;;;;;;5078211;28;20026;-88
2021/01/18 11:15:49;;;;;;;34.40;7.30;;;7.20;99.90;;;;;;5060077;28;20377;-88
2021/01/18 11:18:19;;;;;;;27.38;6.75;;;7.20;99.90;;;;;;5076774;28;20027;-89
2021/01/18 11:20:51;;;;;;;44.00;6.80;;;7.10;99.90;;;;;;5093980;28;20153;-88
2021/01/18 11:23:17;;;;;;;33.90;7.38;;;7.10;99.90;;;;;;5076946;28;20028;-87
2021/01/18 11:25:44;;;;;;;28.00;7.75;;;7.10;99.90;;;;;;5060263;28;20035;-88
2021/01/18 11:28:12;;;;;;;30.88;7.38;;;7.20;99.90;;;;;;5059201;28;20043;-87
2021/01/18 11:30:42;;;;;;;30.55;6.78;;;7.10;99.90;;;;;;5060072;28;20055;-88
2021/01/18 11:33:12;;;;;;;33.72;7.35;;;7.20;99.90;;;;;;5075575;28;20105;-87
2021/01/18 11:35:39;;;;;;;33.15;6.22;;;7.20;99.90;;;;;;5075740;28;20024;-87
2021/01/18 11:38:05;;;;;;;30.77;7.40;;;7.30;99.90;;;;;;5075320;28;20057;-88
2021/01/18 11:40:30;;;;;;;31.00;6.13;;;7.30;99.90;;;;;;5075821;28;20079;-87
2021/01/18 11:43:00;;;;;;;37.20;7.70;;;7.40;99.90;;;;;;5076944;28;20456;-88
2021/01/18 11:45:27;;;;;;;33.25;7.47;;;7.40;99.90;;;;;;5094823;28;20024;-88
2021/01/18 11:47:53;;;;;;;28.05;6.43;;;7.40;99.90;;;;;;5062137;28;20105;-87
2021/01/18 11:50:19;;;;;;;25.02;7.35;;;7.50;99.90;;;;;;5076992;28;20478;-89
2021/01/18 11:52:49;;;;;;;30.75;6.68;;;7.50;99.90;;;;;;5060845;28;20122;-88
2021/01/18 11:55:16;;;;;;;37.65;7.32;;;7.50;99.90;;;;;;5095188;28;20389;-88
2021/01/18 11:57:43;;;;;;;28.33;6.57;;;7.50;99.90;;;;;;5065259;28;20545;-89
2021/01/18 12:00:12;;;;;;;27.17;6.63;;;7.50;99.90;;;;;;5076203;28;20063;-90
2021/01/18 12:02:38;;;;;;;32.58;6.10;;;7.50;99.90;;;;;;5076393;28;20028;-89
2021/01/18 12:05:05;;;;;;;31.83;5.70;;;7.50;99.90;;;;;;5075653;28;20051;-89
2021/01/18 12:07:32;;;;;;;33.53;6.18;;;7.40;99.90;;;;;;5074953;28;20046;-88
2021/01/18 12:09:57;;;;;;;27.30;6.05;;;7.40;99.90;;;;;;5075752;28;20028;-89
2021/01/18 12:12:23;;;;;;;33.30;7.30;;;7.30;99.90;;;;;;5058948;28;20058;-88
2021/01/18 12:14:49;;;;;;;31.38;6.78;;;7.30;99.90;;;;;;5094337;28;20060;-87
2021/01/18 12:17:15;;;;;;;31.60;6.68;;;7.30;99.90;;;;;;5075840;28;20435;-87
2021/01/18 12:19:41;;;;;;;32.13;6.68;;;7.20;99.90;;;;;;5059831;28;20082;-87
2021/01/18 12:22:06;;;;;;;27.42;5.97;;;7.30;99.90;;;;;;5044039;28;20035;-87
2021/01/18 12:24:32;;;;;;;28.90;6.88;;;7.30;99.90;;;;;;5063430;28;20036;-86
2021/01/18 12:26:57;;;;;;;30.67;6.20;;;7.30;99.90;;;;;;5062052;28;20397;-91
2021/01/18 12:29:23;;;;;;;31.90;6.38;;;7.40;99.90;;;;;;5060997;28;20119;-87
2021/01/18 12:31:49;;;;;;;29.92;6.80;;;7.40;99.90;;;;;;5096342;28;20025;-87
2021/01/18 12:34:15;;;;;;;25.95;6.50;;;7.30;99.90;;;;;;5079637;28;20042;-87
2021/01/18 12:36:41;;;;;;;26.33;6.28;;;7.30;99.90;;;;;;5086973;28;20470;-87
2021/01/18 12:39:10;;;;;;;27.90;6.40;;;7.30;99.90;;;;;;5089899;28;20106;-87
2021/01/18 12:41:37;;;;;;;28.67;6.47;;;7.20;99.90;;;;;;5091003;28;20114;-88
2021/01/18 12:44:04;;;;;;;37.35;7.22;;;7.20;99.90;;;;;;5111259;28;20027;-89
2021/01/18 12:46:31;;;;;;;22.23;5.53;;;7.30;99.90;;;;;;5096304;28;20024;-87
2021/01/18 12:48:56;;;;;;;33.88;7.47;;;7.40;99.90;;;;;;5073704;28;20066;-87
2021/01/18 12:51:22;;;;;;;24.13;5.82;;;7.30;99.90;;;;;;5055881;28;20032;-87
2021/01/18 12:53:48;;;;;;;27.02;6.25;;;7.40;99.90;;;;;;5092036;28;20031;-86
2021/01/18 12:56:28;;;;;;;26.08;6.05;;;7.30;99.90;;;;;;5057602;28;20111;-88
2021/01/18 12:58:58;;;;;;;29.73;5.75;;;7.30;99.90;;;;;;5061122;28;20047;-89
2021/01/18 13:01:35;;;;;;;22.08;5.40;;;7.30;99.90;;;;;;5100261;28;20008;-86
2021/01/18 13:04:05;;;;;;;33.40;6.10;;;7.40;99.90;;;;;;5069899;28;20032;-86
2021/01/18 13:06:39;;;;;;;34.97;7.22;;;7.30;99.90;;;;;;5102355;28;20008;-85
2021/01/18 13:09:10;;;;;;;29.35;6.10;;;7.20;99.90;;;;;;5100959;28;20036;-88